Time;durP1;ratioP1;P1;durP2;ratioP2;P2;SDS_P1;SDS_P2;PMS_P1;PMS_P2;Temp;Humidity;BMP_temperature;BMP_pressure;BME280_temperature;BME280_humidity;BME280_pressure;Samples;Min_cycle;Max_cycle;Signal;HPM_P1;HPM_P2
2022/08/09 00:02:12;;;;;;;;;;;;;;;24.24;76.07;97146.12;622210;228;65583;-70
2022/08/09 00:04:39;;;;;;;;;;;;;;;24.23;76.16;97144.53;622182;228;66760;-70
2022/08/09 00:07:07;;;;;;;;;;;;;;;24.24;76.16;97151.49;622194;228;63707;-70
2022/08/09 00:09:34;;;;;;;;;;;;;;;24.24;76.24;97154.18;622173;228;67279;-70
2022/08/09 00:12:02;;;;;;;;;;;;;;;24.24;76.06;97146.12;622241;228;67772;-69
2022/08/09 00:14:29;;;;;;;;;;;;;;;24.24;76.02;97146.12;622154;228;65851;-70
2022/08/09 00:16:57;;;;;;;;;;;;;;;24.23;76.06;97153.38;624293;226;67012;-70
2022/08/09 00:19:24;;;;;;;;;;;;;;;24.24;76.12;97152.29;626790;226;64687;-70
2022/08/09 00:21:52;;;;;;;;;;;;;;;24.24;76.24;97157.66;626781;226;65326;-70
2022/08/09 00:24:20;;;;;;;;;;;;;;;24.22;76.25;97149.08;626825;226;64749;-70
2022/08/09 00:26:47;;;;;;;;;;;;;;;24.23;76.37;97150.70;626803;226;67031;-70
2022/08/09 00:29:15;;;;;;;;;;;;;;;24.23;76.36;97160.65;626822;226;65091;-70
2022/08/09 00:31:42;;;;;;;;;;;;;;;24.23;76.35;97160.65;626770;226;66955;-70
2022/08/09 00:34:10;;;;;;;;;;;;;;;24.24;76.43;97152.29;626786;226;67167;-70
2022/08/09 00:36:37;;;;;;;;;;;;;;;24.22;76.34;97153.66;626827;226;64840;-70
2022/08/09 00:39:05;;;;;;;;;;;;;;;24.22;76.36;97150.98;626783;226;67230;-70
2022/08/09 00:41:32;;;;;;;;;;;;;;;24.22;76.43;97156.34;626765;226;67400;-70
2022/08/09 00:44:00;;;;;;;;;;;;;;;24.21;76.34;97144.81;626776;226;64894;-70
2022/08/09 00:46:27;;;;;;;;;;;;;;;24.23;76.29;97149.91;626740;226;67225;-70
2022/08/09 00:48:55;;;;;;;;;;;;;;;24.21;76.31;97152.87;626805;226;66853;-70
2022/08/09 00:51:23;;;;;;;;;;;;;;;24.24;76.32;97156.86;626845;226;62933;-70
2022/08/09 00:53:50;;;;;;;;;;;;;;;24.23;76.38;97155.28;626772;226;64382;-67
2022/08/09 00:56:18;;;;;;;;;;;;;;;24.24;76.41;97156.86;626713;226;64863;-67
2022/08/09 00:58:45;;;;;;;;;;;;;;;24.22;76.34;97159.03;626759;226;62724;-67
2022/08/09 01:01:14;;;;;;;;;;;;;;;24.23;76.49;97156.07;626823;226;65042;-67
2022/08/09 01:03:43;;;;;;;;;;;;;;;24.21;76.44;97155.55;626696;226;64950;-67
2022/08/09 01:06:15;;;;;;;;;;;;;;;24.21;76.51;97163.61;626682;226;62916;-67
2022/08/09 01:08:54;;;;;;;;;;;;;;;24.23;76.32;97160.65;626755;226;64799;-67
2022/08/09 01:11:24;;;;;;;;;;;;;;;24.21;76.26;97154.76;626791;226;64843;-69
2022/08/09 01:13:59;;;;;;;;;;;;;;;24.21;76.26;97160.13;626748;226;65144;-69
2022/08/09 01:16:28;;;;;;;;;;;;;;;24.23;76.42;97163.34;625545;226;67170;-69
2022/08/09 01:18:57;;;;;;;;;;;;;;;24.21;76.31;97160.13;622157;228;67517;-69
2022/08/09 01:21:29;;;;;;;;;;;;;;;24.21;76.31;97163.61;622193;228;62831;-70
2022/08/09 01:24:01;;;;;;;;;;;;;;;24.21;76.14;97163.61;622150;228;67106;-70
2022/08/09 01:26:39;;;;;;;;;;;;;;;24.23;76.26;97160.65;622193;228;67268;-69
2022/08/09 01:29:08;;;;;;;;;;;;;;;24.21;76.19;97157.45;622097;227;63853;-70
2022/08/09 01:31:37;;;;;;;;;;;;;;;24.21;76.29;97163.61;622204;228;64855;-70
2022/08/09 01:34:05;;;;;;;;;;;;;;;24.21;76.30;97162.81;622187;228;67265;-70
2022/08/09 01:36:33;;;;;;;;;;;;;;;24.21;76.28;97163.61;622182;228;62697;-70
2022/08/09 01:39:02;;;;;;;;;;;;;;;24.22;76.28;97159.03;622181;228;64812;-70
2022/08/09 01:41:31;;;;;;;;;;;;;;;24.21;76.33;97162.81;622199;228;66758;-70
2022/08/09 01:44:00;;;;;;;;;;;;;;;24.20;76.34;97159.34;622179;228;65028;-67
2022/08/09 01:46:29;;;;;;;;;;;;;;;24.20;76.31;97162.02;622197;228;67150;-67
2022/08/09 01:48:58;;;;;;;;;;;;;;;24.21;76.31;97160.13;622146;228;67294;-67
2022/08/09 01:51:26;;;;;;;;;;;;;;;24.21;76.33;97157.45;621865;227;64905;-67
2022/08/09 01:53:55;;;;;;;;;;;;;;;24.20;76.39;97170.08;622181;228;67143;-67
2022/08/09 01:56:24;;;;;;;;;;;;;;;24.21;76.38;97162.81;622147;228;67239;-67
2022/08/09 01:58:53;;;;;;;;;;;;;;;24.21;76.35;97168.19;622210;228;65023;-68
2022/08/09 02:01:22;;;;;;;;;;;;;;;24.20;76.37;97161.20;622156;228;65060;-68
2022/08/09 02:03:50;;;;;;;;;;;;;;;24.20;76.33;97164.70;622181;228;66959;-68
2022/08/09 02:07:07;;;;;;;;;;;;;;;24.20;76.30;97172.77;622196;228;65069;-68
2022/08/09 02:08:49;;;;;;;;;;;;;;;24.20;76.30;97171.94;621500;228;64618;-68
2022/08/09 02:11:16;;;;;;;;;;;;;;;24.21;76.26;97177.03;622239;228;64881;-68
2022/08/09 02:13:44;;;;;;;;;;;;;;;24.20;76.29;97178.13;622115;228;62781;-68
2022/08/09 02:16:12;;;;;;;;;;;;;;;24.20;76.30;97177.31;622154;226;65109;-68
2022/08/09 02:18:41;;;;;;;;;;;;;;;24.19;76.29;97171.14;622197;228;66722;-68
2022/08/09 02:21:09;;;;;;;;;;;;;;;24.19;76.28;97173.83;622149;228;62746;-68
2022/08/09 02:23:41;;;;;;;;;;;;;;;24.21;76.31;97176.24;622068;226;64938;-67
2022/08/09 02:26:10;;;;;;;;;;;;;;;24.20;76.46;97190.73;622148;227;64820;-68
2022/08/09 02:28:42;;;;;;;;;;;;;;;24.20;76.41;97193.42;622159;228;62972;-68
2022/08/09 02:31:14;;;;;;;;;;;;;;;24.20;76.40;97194.25;622205;228;67133;-68
2022/08/09 02:33:43;;;;;;;;;;;;;;;24.20;76.45;97196.11;621855;227;67086;-68
2022/08/09 02:36:12;;;;;;;;;;;;;;;24.20;76.45;97198.80;622151;228;63334;-70
2022/08/09 02:38:42;;;;;;;;;;;;;;;24.19;76.50;97187.26;622201;228;64929;-70
2022/08/09 02:41:11;;;;;;;;;;;;;;;24.20;76.57;97194.25;622142;228;67871;-70
2022/08/09 02:43:40;;;;;;;;;;;;;;;24.19;76.54;97197.20;622171;228;64868;-71
2022/08/09 02:46:10;;;;;;;;;;;;;;;24.20;76.58;97201.48;622177;228;64849;-70
2022/08/09 02:48:39;;;;;;;;;;;;;;;24.19;76.59;97199.89;622156;228;67017;-70
2022/08/09 02:51:08;;;;;;;;;;;;;;;24.20;76.63;97199.61;622207;228;62774;-71
2022/08/09 02:53:40;;;;;;;;;;;;;;;24.19;76.64;97200.69;622206;228;64907;-70
2022/08/09 02:56:08;;;;;;;;;;;;;;;24.19;76.65;97203.37;622185;228;64609;-70
2022/08/09 02:58:37;;;;;;;;;;;;;;;24.19;76.66;97203.37;622175;228;64939;-70
2022/08/09 03:01:08;;;;;;;;;;;;;;;24.19;76.68;97203.37;622120;228;64854;-70
2022/08/09 03:03:37;;;;;;;;;;;;;;;24.20;76.71;97204.16;622160;228;67561;-70
2022/08/09 03:06:05;;;;;;;;;;;;;;;24.19;76.69;97194.52;622219;228;64938;-71
2022/08/09 03:08:33;;;;;;;;;;;;;;;24.19;76.72;97203.37;622147;228;67238;-71
2022/08/09 03:11:01;;;;;;;;;;;;;;;24.18;76.69;97204.47;622178;228;64704;-71
2022/08/09 03:13:29;;;;;;;;;;;;;;;24.18;76.72;97204.47;622142;228;62749;-70
2022/08/09 03:15:56;;;;;;;;;;;;;;;24.19;76.73;97202.58;622297;226;65096;-71
2022/08/09 03:18:25;;;;;;;;;;;;;;;24.19;76.73;97197.20;626813;226;67049;-71
2022/08/09 03:20:53;;;;;;;;;;;;;;;24.19;76.74;97199.89;626879;226;62916;-68
2022/08/09 03:23:21;;;;;;;;;;;;;;;24.19;76.71;97207.95;626816;226;66644;-68
2022/08/09 03:25:49;;;;;;;;;;;;;;;24.18;76.73;97209.84;626833;226;66672;-68
2022/08/09 03:28:17;;;;;;;;;;;;;;;24.18;76.73;97217.09;626802;226;62672;-67
2022/08/09 03:30:45;;;;;;;;;;;;;;;24.19;76.76;97207.95;626827;226;67320;-68
2022/08/09 03:33:13;;;;;;;;;;;;;;;24.18;76.79;97207.15;626866;226;66735;-68
2022/08/09 03:35:43;;;;;;;;;;;;;;;24.18;76.80;97217.89;626799;226;65121;-68
2022/08/09 03:38:10;;;;;;;;;;;;;;;24.19;76.82;97210.63;626823;226;67047;-67
2022/08/09 03:40:38;;;;;;;;;;;;;;;24.18;76.82;97211.73;626832;226;66869;-67
2022/08/09 03:43:05;;;;;;;;;;;;;;;24.18;76.85;97214.41;626770;226;65133;-67
2022/08/09 03:45:35;;;;;;;;;;;;;;;24.18;76.82;97217.89;626877;226;67302;-67
2022/08/09 03:48:03;;;;;;;;;;;;;;;24.19;76.82;97218.69;626796;226;64898;-68
2022/08/09 03:50:32;;;;;;;;;;;;;;;24.18;76.88;97219.78;626651;226;65016;-68
2022/08/09 03:53:01;;;;;;;;;;;;;;;24.19;76.85;97224.05;626764;226;64846;-68
2022/08/09 03:55:28;;;;;;;;;;;;;;;24.18;76.91;97219.78;626816;226;67027;-68
2022/08/09 03:57:56;;;;;;;;;;;;;;;24.18;76.93;97223.27;626821;226;64906;-68
2022/08/09 04:00:25;;;;;;;;;;;;;;;24.17;76.99;97216.27;626812;226;67376;-68
2022/08/09 04:02:53;;;;;;;;;;;;;;;24.17;77.02;97216.27;626797;226;66870;-68
2022/08/09 04:05:21;;;;;;;;;;;;;;;24.18;77.02;97217.09;626783;226;62968;-68
2022/08/09 04:07:49;;;;;;;;;;;;;;;24.17;77.02;97221.64;626771;226;67156;-68
2022/08/09 04:10:17;;;;;;;;;;;;;;;24.18;77.05;97222.47;626820;226;66801;-68
2022/08/09 04:12:49;;;;;;;;;;;;;;;24.17;77.04;97216.27;626822;226;62821;-68
2022/08/09 04:15:18;;;;;;;;;;;;;;;24.17;77.08;97212.80;626798;226;64987;-68
2022/08/09 04:17:45;;;;;;;;;;;;;;;24.17;77.11;97205.53;623100;226;67270;-68
2022/08/09 04:20:13;;;;;;;;;;;;;;;24.17;77.12;97207.42;622125;228;65138;-68
2022/08/09 04:22:41;;;;;;;;;;;;;;;24.18;77.12;97211.73;622197;228;67070;-68
2022/08/09 04:25:09;;;;;;;;;;;;;;;24.17;77.07;97212.80;622213;228;67031;-67
2022/08/09 04:27:40;;;;;;;;;;;;;;;24.17;77.09;97210.11;622181;228;64806;-68
2022/08/09 04:30:08;;;;;;;;;;;;;;;24.17;77.17;97215.48;622137;227;67012;-68
2022/08/09 04:32:35;;;;;;;;;;;;;;;24.17;77.23;97213.59;621814;227;66878;-68
2022/08/09 04:35:03;;;;;;;;;;;;;;;24.17;77.27;97202.05;622210;228;64965;-68
2022/08/09 04:37:31;;;;;;;;;;;;;;;24.16;77.33;97209.31;622228;228;66804;-68
2022/08/09 04:39:58;;;;;;;;;;;;;;;24.17;77.33;97207.42;622197;228;66885;-67
2022/08/09 04:42:31;;;;;;;;;;;;;;;24.17;77.36;97207.42;622180;228;62486;-68
2022/08/09 04:44:58;;;;;;;;;;;;;;;24.17;77.39;97204.73;621963;227;68118;-68
2022/08/09 04:47:27;;;;;;;;;;;;;;;24.17;77.39;97202.05;622190;228;66883;-67
2022/08/09 04:49:55;;;;;;;;;;;;;;;24.18;77.50;97200.98;622186;228;62712;-67
2022/08/09 04:52:24;;;;;;;;;;;;;;;24.17;77.50;97199.37;622240;228;64876;-67
2022/08/09 04:54:51;;;;;;;;;;;;;;;24.15;77.61;97197.78;622165;228;66924;-67
2022/08/09 04:57:19;;;;;;;;;;;;;;;24.16;77.62;97201.27;622190;228;64887;-67
2022/08/09 04:59:46;;;;;;;;;;;;;;;24.17;77.58;97202.05;622144;228;67435;-67
2022/08/09 05:02:14;;;;;;;;;;;;;;;24.15;77.60;97203.16;622201;228;64822;-67
2022/08/09 05:04:42;;;;;;;;;;;;;;;24.17;77.56;97207.42;622169;228;62573;-67
2022/08/09 05:07:09;;;;;;;;;;;;;;;24.16;77.56;97203.95;622183;228;67381;-67
2022/08/09 05:09:37;;;;;;;;;;;;;;;24.17;77.55;97210.11;622206;228;66779;-67
2022/08/09 05:12:04;;;;;;;;;;;;;;;24.16;77.61;97212.00;622127;228;65829;-67
2022/08/09 05:14:32;;;;;;;;;;;;;;;24.16;77.61;97203.95;622180;228;64544;-67
2022/08/09 05:17:00;;;;;;;;;;;;;;;24.15;77.65;97205.84;624399;226;66750;-68
2022/08/09 05:19:29;;;;;;;;;;;;;;;24.16;77.62;97201.27;626778;226;65231;-67
2022/08/09 05:21:57;;;;;;;;;;;;;;;24.16;77.55;97214.69;626769;226;67871;-67
2022/08/09 05:24:24;;;;;;;;;;;;;;;24.14;77.61;97212.30;626789;226;64450;-67
2022/08/09 05:26:52;;;;;;;;;;;;;;;24.15;77.55;97219.27;626727;226;64975;-67
2022/08/09 05:29:20;;;;;;;;;;;;;;;24.16;77.61;97206.63;626860;226;67176;-67
2022/08/09 05:31:47;;;;;;;;;;;;;;;24.15;77.60;97213.89;626750;226;67251;-67
2022/08/09 05:34:15;;;;;;;;;;;;;;;24.15;77.68;97208.52;626787;226;62984;-67
2022/08/09 05:36:44;;;;;;;;;;;;;;;24.15;77.65;97202.36;626731;226;67230;-71
2022/08/09 05:39:11;;;;;;;;;;;;;;;24.15;77.62;97203.16;626802;226;66892;-67
2022/08/09 05:41:39;;;;;;;;;;;;;;;24.14;77.64;97201.56;626845;226;62827;-67
2022/08/09 05:44:06;;;;;;;;;;;;;;;24.15;77.69;97199.67;626972;226;68002;-70
2022/08/09 05:46:34;;;;;;;;;;;;;;;24.15;77.70;97202.36;626749;226;67110;-73
2022/08/09 05:49:01;;;;;;;;;;;;;;;24.15;77.13;97208.52;626083;226;62742;-72
2022/08/09 05:51:29;;;;;;;;;;;;;;;24.15;78.08;97208.52;626777;226;66732;-70
2022/08/09 05:53:56;;;;;;;;;;;;;;;24.14;77.44;97217.67;626677;226;64871;-69
2022/08/09 05:56:24;;;;;;;;;;;;;;;24.13;77.70;97213.38;619282;226;65191;-69
2022/08/09 05:58:56;;;;;;;;;;;;;;;24.13;77.58;97221.42;619431;229;65279;-68
2022/08/09 06:01:21;;;;;;;;;;;;;;;24.12;77.49;97219.84;619303;229;65540;-72
2022/08/09 06:03:49;;;;;;;;;;;;;;;24.13;77.43;97216.05;619462;229;62716;-71
2022/08/09 06:06:18;;;;;;;;;;;;;;;24.12;77.48;97217.16;619567;229;67453;-72
2022/08/09 06:08:46;;;;;;;;;;;;;;;24.11;77.51;97212.85;619487;229;67027;-71
2022/08/09 06:11:15;;;;;;;;;;;;;;;24.12;77.53;97221.73;619260;229;43895;-70
2022/08/09 06:13:43;;;;;;;;;;;;;;;24.10;77.24;97224.69;619486;229;67240;-70
2022/08/09 06:16:10;;;;;;;;;;;;;;;24.11;76.59;97218.22;618596;229;64716;-70
2022/08/09 06:18:38;;;;;;;;;;;;;;;24.11;76.99;97228.96;614992;230;62698;-72
2022/08/09 06:21:06;;;;;;;;;;;;;;;24.12;77.43;97230.58;614977;230;67298;-74
2022/08/09 06:23:34;;;;;;;;;;;;;;;24.12;77.67;97227.09;614972;230;65047;-74
2022/08/09 06:26:02;;;;;;;;;;;;;;;24.12;77.78;97225.20;615029;230;64892;-74
2022/08/09 06:28:29;;;;;;;;;;;;;;;24.13;77.82;97226.00;615029;230;64903;-74
2022/08/09 06:30:57;;;;;;;;;;;;;;;24.13;77.80;97224.11;614822;230;65757;-72
2022/08/09 06:33:24;;;;;;;;;;;;;;;24.13;77.72;97224.11;615012;230;64840;-73
2022/08/09 06:35:52;;;;;;;;;;;;;;;24.14;77.76;97220.36;615028;230;65413;-71
2022/08/09 06:38:19;;;;;;;;;;;;;;;24.15;77.68;97218.47;615026;230;64444;-71
2022/08/09 06:40:47;;;;;;;;;;;;;;;24.15;77.66;97213.09;614915;230;65013;-71
2022/08/09 06:43:15;;;;;;;;;;;;;;;24.15;77.86;97205.84;614987;230;65620;-74
2022/08/09 06:45:42;;;;;;;;;;;;;;;24.15;77.19;97207.73;616937;228;65069;-71
2022/08/09 06:48:11;;;;;;;;;;;;;;;24.15;76.38;97203.16;618787;228;62858;-71
2022/08/09 06:50:38;;;;;;;;;;;;;;;24.15;77.02;97197.78;619091;228;67198;-69
2022/08/09 06:53:06;;;;;;;;;;;;;;;24.17;76.75;97199.37;621983;228;67121;-71
2022/08/09 06:55:35;;;;;;;;;;;;;;;24.15;76.50;97200.47;622040;228;65100;-69
2022/08/09 06:58:03;;;;;;;;;;;;;;;24.16;76.43;97201.27;622068;226;67482;-69
2022/08/09 07:00:31;;;;;;;;;;;;;;;24.16;76.34;97198.58;622035;228;67007;-70
2022/08/09 07:02:59;;;;;;;;;;;;;;;24.16;76.32;97193.20;622102;228;65351;-70
2022/08/09 07:05:28;;;;;;;;;;;;;;;24.18;76.35;97198.30;622074;228;66891;-70
2022/08/09 07:07:57;;;;;;;;;;;;;;;24.17;76.35;97197.48;622096;228;65177;-71
2022/08/09 07:10:24;;;;;;;;;;;;;;;24.18;76.35;97192.93;622142;228;62725;-70
2022/08/09 07:12:56;;;;;;;;;;;;;;;24.18;76.45;97195.62;622145;227;47294;-69
2022/08/09 07:15:23;;;;;;;;;;;;;;;24.19;76.52;97202.58;622138;228;67048;-70
2022/08/09 07:17:52;;;;;;;;;;;;;;;24.18;76.57;97195.62;625860;226;62645;-68
2022/08/09 07:20:21;;;;;;;;;;;;;;;24.18;76.64;97192.93;626659;226;65474;-68
2022/08/09 07:22:48;;;;;;;;;;;;;;;24.19;76.84;97197.20;626768;226;67048;-68
2022/08/09 07:25:16;;;;;;;;;;;;;;;24.19;76.98;97195.31;626810;226;64714;-70
2022/08/09 07:27:43;;;;;;;;;;;;;;;24.19;77.22;97195.31;626706;226;66662;-69
2022/08/09 07:30:12;;;;;;;;;;;;;;;24.20;77.45;97188.05;626662;226;64558;-70
2022/08/09 07:32:41;;;;;;;;;;;;;;;24.20;77.31;97196.11;626765;226;65035;-68
2022/08/09 07:35:11;;;;;;;;;;;;;;;24.20;77.39;97190.73;626617;226;64336;-69
2022/08/09 07:37:43;;;;;;;;;;;;;;;24.19;76.30;97192.62;626783;226;66907;-68
2022/08/09 07:40:13;;;;;;;;;;;;;;;24.21;75.57;97186.98;626537;226;65052;-70
2022/08/09 07:42:50;;;;;;;;;;;;;;;24.24;77.29;97202.52;625881;226;64756;-70
2022/08/09 07:45:24;;;;;;;;;;;;;;;24.22;72.25;97188.57;626814;226;47094;-70
2022/08/09 07:47:49;;;;;;;;;;;;;;;24.25;74.14;97191.47;626626;226;62986;-71
2022/08/09 07:50:19;;;;;;;;;;;;;;;24.26;76.72;97193.09;626699;226;64520;-68
2022/08/09 07:52:48;;;;;;;;;;;;;;;24.25;77.09;97186.10;626862;226;47867;-68
2022/08/09 07:55:17;;;;;;;;;;;;;;;24.26;76.85;97184.23;626725;226;65083;-68
2022/08/09 07:57:47;;;;;;;;;;;;;;;24.24;76.97;97179.14;619728;226;47229;-68
2022/08/09 08:00:16;;;;;;;;;;;;;;;24.25;76.89;97175.36;626716;226;67240;-69
2022/08/09 08:02:44;;;;;;;;;;;;;;;24.25;76.89;97178.05;626699;226;65132;-71
2022/08/09 08:05:11;;;;;;;;;;;;;;;24.25;76.90;97175.36;626662;226;64717;-70
2022/08/09 08:07:39;;;;;;;;;;;;;;;24.25;77.06;97169.98;626768;226;67071;-69
2022/08/09 08:10:07;;;;;;;;;;;;;;;24.26;77.05;97176.18;626707;226;64940;-67
2022/08/09 08:12:35;;;;;;;;;;;;;;;24.26;77.12;97176.97;626696;226;65102;-69
2022/08/09 08:15:03;;;;;;;;;;;;;;;24.27;77.17;97175.08;626687;226;64804;-70
2022/08/09 08:17:30;;;;;;;;;;;;;;;24.27;77.28;97173.19;623487;226;65099;-68
2022/08/09 08:19:58;;;;;;;;;;;;;;;24.27;77.36;97169.71;621181;228;64515;-68
2022/08/09 08:22:25;;;;;;;;;;;;;;;24.27;77.36;97172.40;622051;228;64824;-69
2022/08/09 08:24:56;;;;;;;;;;;;;;;24.28;77.45;97168.61;622067;228;64802;-69
2022/08/09 08:27:23;;;;;;;;;;;;;;;24.28;77.49;97173.98;621269;228;67720;-68
2022/08/09 08:29:52;;;;;;;;;;;;;;;24.28;77.41;97168.61;621108;228;66892;-70
2022/08/09 08:32:21;;;;;;;;;;;;;;;24.28;77.50;97173.98;622057;228;64930;-74
2022/08/09 08:34:48;;;;;;;;;;;;;;;24.28;77.58;97171.30;622108;228;67046;-70
2022/08/09 08:37:16;;;;;;;;;;;;;;;24.28;77.63;97172.13;621795;228;67046;-70
2022/08/09 08:39:45;;;;;;;;;;;;;;;24.28;77.65;97173.98;622096;228;65115;-70
2022/08/09 08:42:13;;;;;;;;;;;;;;;24.28;77.75;97173.98;622140;228;67110;-66
2022/08/09 08:44:41;;;;;;;;;;;;;;;24.28;77.63;97171.30;622131;228;66891;-66
2022/08/09 08:47:10;;;;;;;;;;;;;;;24.28;77.87;97174.81;622056;228;62889;-66
2022/08/09 08:49:39;;;;;;;;;;;;;;;24.28;78.08;97157.87;612939;228;67389;-65
2022/08/09 08:52:07;;;;;;;;;;;;;;;24.28;78.11;97166.75;622182;228;64855;-66
2022/08/09 08:54:35;;;;;;;;;;;;;;;24.29;77.85;97164.86;622094;228;65142;-66
2022/08/09 08:57:03;;;;;;;;;;;;;;;24.28;78.01;97164.06;621987;228;64821;-69
2022/08/09 08:59:31;;;;;;;;;;;;;;;24.28;77.97;97164.06;622138;228;67300;-69
2022/08/09 09:01:59;;;;;;;;;;;;;;;24.29;77.96;97167.55;620884;228;62749;-70
2022/08/09 09:04:28;;;;;;;;;;;;;;;24.28;78.12;97158.70;622128;228;64838;-69
2022/08/09 09:06:57;;;;;;;;;;;;;;;24.29;78.22;97156.80;621870;227;64622;-70
2022/08/09 09:09:26;;;;;;;;;;;;;;;24.29;78.19;97160.28;622110;228;63043;-67
2022/08/09 09:11:54;;;;;;;;;;;;;;;24.30;78.04;97158.39;621980;228;67161;-68
2022/08/09 09:14:24;;;;;;;;;;;;;;;24.29;77.98;97156.80;622027;228;65946;-68
2022/08/09 09:16:52;;;;;;;;;;;;;;;24.30;78.17;97159.19;622011;226;65338;-68
2022/08/09 09:19:19;;;;;;;;;;;;;;;24.30;78.08;97158.39;621548;228;67068;-67
2022/08/09 09:22:01;;;;;;;;;;;;;;;24.31;78.01;97141.20;620844;228;64673;-66
2022/08/09 09:24:29;;;;;;;;;;;;;;;24.30;78.37;97147.64;621807;228;62744;-69
2022/08/09 09:26:57;;;;;;;;;;;;;;;24.30;77.97;97150.33;622179;228;67106;-70
2022/08/09 09:29:32;;;;;;;;;;;;;;;24.30;77.90;97150.33;622041;228;67440;-69
2022/08/09 09:32:01;;;;;;;;;;;;;;;24.31;78.04;97151.95;621860;227;61703;-68
2022/08/09 09:34:29;;;;;;;;;;;;;;;24.30;78.19;97148.44;622118;228;64602;-69
2022/08/09 09:36:57;;;;;;;;;;;;;;;24.31;78.37;97146.58;622052;228;64832;-69
2022/08/09 09:39:26;;;;;;;;;;;;;;;24.31;78.43;97130.46;622113;228;64860;-68
2022/08/09 09:41:53;;;;;;;;;;;;;;;24.29;78.62;97133.42;622145;228;67283;-69
2022/08/09 09:44:28;;;;;;;;;;;;;;;24.31;78.62;97128.57;622050;228;66875;-68
2022/08/09 09:46:57;;;;;;;;;;;;;;;24.30;78.87;97126.95;622091;228;64886;-69
2022/08/09 09:49:25;;;;;;;;;;;;;;;24.30;78.24;97123.47;621216;227;64734;-68
2022/08/09 09:51:53;;;;;;;;;;;;;;;24.30;78.05;97118.90;622110;228;64796;-68
2022/08/09 09:54:22;;;;;;;;;;;;;;;24.31;78.46;97120.52;622032;227;62940;-69
2022/08/09 09:56:51;;;;;;;;;;;;;;;24.30;78.64;97115.42;622091;228;65766;-68
2022/08/09 09:59:23;;;;;;;;;;;;;;;24.31;78.49;97109.77;622067;228;66922;-69
2022/08/09 10:02:00;;;;;;;;;;;;;;;24.31;78.46;97114.34;621831;227;62728;-68
2022/08/09 10:04:27;;;;;;;;;;;;;;;24.30;78.48;97108.16;622097;228;67384;-69
2022/08/09 10:06:55;;;;;;;;;;;;;;;24.32;78.59;97105.19;622134;228;66936;-69
2022/08/09 10:09:22;;;;;;;;;;;;;;;24.31;78.43;97104.40;622136;228;62575;-70
2022/08/09 10:11:57;;;;;;;;;;;;;;;24.31;78.31;97095.55;622053;228;67340;-69
2022/08/09 10:14:29;;;;;;;;;;;;;;;24.32;78.47;97107.88;621823;227;67033;-70
2022/08/09 10:16:57;;;;;;;;;;;;;;;24.31;78.53;97096.34;622074;226;64884;-69
2022/08/09 10:19:36;;;;;;;;;;;;;;;24.31;78.46;97099.03;622038;228;67040;-69
2022/08/09 10:22:04;;;;;;;;;;;;;;;24.31;78.35;97099.03;621063;228;66690;-69
2022/08/09 10:24:31;;;;;;;;;;;;;;;24.31;78.23;97096.34;617644;228;66095;-69
2022/08/09 10:26:59;;;;;;;;;;;;;;;24.32;78.23;97100.61;617208;228;67162;-70
2022/08/09 10:29:27;;;;;;;;;;;;;;;24.32;78.23;97099.82;618803;228;65027;-70
2022/08/09 10:31:55;;;;;;;;;;;;;;;24.32;78.23;97091.77;618060;228;65043;-70
2022/08/09 10:34:23;;;;;;;;;;;;;;;24.32;78.34;97089.08;619123;228;67238;-70
2022/08/09 10:36:55;;;;;;;;;;;;;;;24.33;78.23;97096.03;619998;228;66898;-70
2022/08/09 10:39:22;;;;;;;;;;;;;;;24.33;78.24;97106.78;618632;227;64043;-69
2022/08/09 10:41:50;;;;;;;;;;;;;;;24.32;78.17;97105.98;618459;228;67247;-70
2022/08/09 10:44:22;;;;;;;;;;;;;;;24.32;78.34;97097.92;618122;228;64740;-69
2022/08/09 10:46:54;;;;;;;;;;;;;;;24.33;78.35;97091.45;618383;228;62735;-69
2022/08/09 10:49:26;;;;;;;;;;;;;;;24.33;78.42;97101.41;616530;227;64623;-70
2022/08/09 10:52:12;;;;;;;;;;;;;;;24.32;78.46;97094.45;609004;231;67080;-69
2022/08/09 10:54:40;;;;;;;;;;;;;;;24.33;78.43;97082.61;614232;231;62762;-69
2022/08/09 10:57:09;;;;;;;;;;;;;;;24.33;78.41;97085.29;614294;231;67688;-70
2022/08/09 10:59:41;;;;;;;;;;;;;;;24.33;78.39;97090.66;614294;231;67012;-71
2022/08/09 11:02:10;;;;;;;;;;;;;;;24.33;78.57;97090.66;614206;231;65091;-72
2022/08/09 11:04:38;;;;;;;;;;;;;;;24.32;76.97;97094.45;614301;229;67365;-68
2022/08/09 11:07:07;;;;;;;;;;;;;;;24.33;73.79;97080.71;614328;231;64798;-71
2022/08/09 11:09:39;;;;;;;;;;;;;;;24.35;76.11;97072.38;614271;231;62799;-69
2022/08/09 11:12:14;;;;;;;;;;;;;;;24.36;76.91;97084.70;614302;231;64763;-68
2022/08/09 11:14:43;;;;;;;;;;;;;;;24.35;77.15;97072.38;614294;231;67784;-69
2022/08/09 11:17:17;;;;;;;;;;;;;;;24.35;77.50;97075.06;616250;229;65053;-69
2022/08/09 11:19:53;;;;;;;;;;;;;;;24.35;77.63;97072.38;617935;229;67117;-66
2022/08/09 11:22:22;;;;;;;;;;;;;;;24.35;77.80;97072.38;617921;229;66988;-65
2022/08/09 11:24:51;;;;;;;;;;;;;;;24.34;78.11;97066.21;617075;229;65080;-68
2022/08/09 11:27:32;;;;;;;;;;;;;;;24.34;78.26;97068.11;615713;229;67039;-67
2022/08/09 11:30:00;;;;;;;;;;;;;;;24.34;77.85;97065.42;617952;229;64862;-67
2022/08/09 11:32:41;;;;;;;;;;;;;;;24.34;78.00;97068.11;618028;229;65194;-67
2022/08/09 11:35:10;;;;;;;;;;;;;;;24.34;78.30;97065.42;617966;229;67089;-69
2022/08/09 11:37:40;;;;;;;;;;;;;;;24.34;78.39;97060.05;617953;229;67442;-69
2022/08/09 11:40:10;;;;;;;;;;;;;;;24.34;78.60;97060.05;618062;229;65034;-68
2022/08/09 11:42:39;;;;;;;;;;;;;;;24.34;78.66;97058.16;618002;229;66943;-69
2022/08/09 11:45:25;;;;;;;;;;;;;;;24.34;78.81;97057.36;617987;229;67123;-69
2022/08/09 11:47:56;;;;;;;;;;;;;;;24.34;78.68;97051.99;617939;229;62604;-69
2022/08/09 11:50:24;;;;;;;;;;;;;;;24.35;73.83;97040.94;618061;229;66884;-68
2022/08/09 11:53:03;;;;;;;;;;;;;;;24.37;77.60;97046.03;617855;229;66700;-68
2022/08/09 11:55:31;;;;;;;;;;;;;;;24.36;78.35;97045.23;617634;229;62913;-69
2022/08/09 11:58:00;;;;;;;;;;;;;;;24.36;77.81;97033.67;618050;229;66773;-69
2022/08/09 12:00:29;;;;;;;;;;;;;;;24.34;77.74;97028.61;617964;229;64630;-69
2022/08/09 12:02:57;;;;;;;;;;;;;;;24.35;76.15;97029.41;618085;229;64873;-69
2022/08/09 12:05:33;;;;;;;;;;;;;;;24.37;75.42;97027.23;618075;229;64888;-69
2022/08/09 12:08:00;;;;;;;;;;;;;;;24.38;77.12;97023.45;617908;229;64606;-72
2022/08/09 12:10:29;;;;;;;;;;;;;;;24.35;73.65;97024.83;618046;229;64893;-71
2022/08/09 12:12:56;;;;;;;;;;;;;;;24.39;72.66;97030.43;618007;229;67432;-74
2022/08/09 12:15:25;;;;;;;;;;;;;;;24.41;76.02;97030.91;617449;229;64772;-71
2022/08/09 12:17:53;;;;;;;;;;;;;;;24.40;76.19;97020.48;615386;229;62930;-69
2022/08/09 12:20:23;;;;;;;;;;;;;;;24.39;71.01;97014.31;614850;230;64789;-70
2022/08/09 12:22:55;;;;;;;;;;;;;;;24.42;73.58;97016.41;614884;230;64890;-74
2022/08/09 12:25:22;;;;;;;;;;;;;;;24.43;71.39;97015.31;614532;230;64951;-76
2022/08/09 12:27:51;;;;;;;;;;;;;;;24.43;72.64;97015.31;614869;230;64812;-71
2022/08/09 12:30:19;;;;;;;;;;;;;;;24.43;74.59;97019.89;614140;230;64843;-68
2022/08/09 12:32:47;;;;;;;;;;;;;;;24.42;76.00;97015.59;614964;230;62897;-68
2022/08/09 12:35:14;;;;;;;;;;;;;;;24.41;75.80;97017.48;614872;230;66916;-68
2022/08/09 12:37:42;;;;;;;;;;;;;;;24.41;75.92;97012.11;614945;230;66800;-68
2022/08/09 12:40:10;;;;;;;;;;;;;;;24.40;76.04;96998.98;614884;230;64933;-68
2022/08/09 12:42:39;;;;;;;;;;;;;;;24.41;76.12;97003.26;614893;230;65074;-68
2022/08/09 12:45:07;;;;;;;;;;;;;;;24.39;76.47;96992.83;614820;230;66719;-68
2022/08/09 12:47:35;;;;;;;;;;;;;;;24.39;76.55;96987.45;614861;230;65139;-69
2022/08/09 12:50:18;;;;;;;;;;;;;;;24.40;76.78;96977.50;614948;230;65890;-68
2022/08/09 12:52:47;;;;;;;;;;;;;;;24.40;76.98;96980.98;614938;230;64351;-68
2022/08/09 12:55:27;;;;;;;;;;;;;;;24.39;76.50;96971.34;614839;230;64916;-69
2022/08/09 12:57:55;;;;;;;;;;;;;;;24.39;76.06;96974.02;615016;230;66922;-71